createdAt,value
2022-12-08T00:01:06.058Z,95.96
2022-12-08T00:03:34.246Z,95.91
2022-12-08T00:06:21.331Z,95.95
2022-12-08T00:09:03.116Z,95.90
2022-12-08T00:11:30.842Z,95.97
2022-12-08T00:14:00.096Z,96.16
2022-12-08T00:16:27.931Z,96.31
2022-12-08T00:18:55.748Z,96.49
2022-12-08T00:21:23.528Z,96.56
2022-12-08T00:23:51.293Z,96.44
2022-12-08T00:26:19.022Z,96.66
2022-12-08T00:28:47.210Z,96.76
2022-12-08T00:31:16.528Z,96.69
2022-12-08T00:33:44.344Z,96.77
2022-12-08T00:36:15.173Z,96.87
2022-12-08T00:38:44.691Z,96.94
2022-12-08T00:41:15.063Z,97.01
2022-12-08T00:43:43.338Z,97.13
2022-12-08T00:46:12.042Z,97.15
2022-12-08T00:48:41.381Z,97.58
2022-12-08T00:51:09.151Z,97.57
2022-12-08T00:53:36.894Z,97.62
2022-12-08T00:56:04.718Z,97.66
2022-12-08T00:58:32.449Z,97.63
2022-12-08T01:01:00.175Z,97.89
2022-12-08T01:03:28.043Z,97.90
2022-12-08T01:05:57.168Z,97.75
2022-12-08T01:08:25.031Z,97.94
2022-12-08T01:10:53.007Z,97.99
2022-12-08T01:13:20.736Z,97.99
2022-12-08T01:15:48.563Z,97.97
2022-12-08T01:18:16.398Z,98.08
2022-12-08T01:20:44.193Z,98.00
2022-12-08T01:23:14.105Z,98.02
2022-12-08T01:25:41.885Z,97.95
2022-12-08T01:28:09.635Z,98.21
2022-12-08T01:30:39.367Z,98.07
2022-12-08T01:33:07.521Z,97.98
2022-12-08T01:35:35.602Z,98.07
2022-12-08T01:38:03.403Z,98.28
2022-12-08T01:40:32.568Z,98.31
2022-12-08T01:43:00.346Z,98.26
2022-12-08T01:45:29.718Z,98.06
2022-12-08T01:48:00.946Z,97.89
2022-12-08T01:50:29.312Z,98.05
2022-12-08T01:53:00.480Z,98.03
2022-12-08T01:55:37.993Z,97.79
2022-12-08T01:58:13.308Z,97.74
2022-12-08T02:00:41.072Z,97.65
2022-12-08T02:03:14.294Z,97.54
2022-12-08T02:05:42.920Z,97.46
2022-12-08T02:08:12.548Z,97.60
2022-12-08T02:10:43.513Z,97.55
2022-12-08T02:13:14.494Z,97.75
2022-12-08T02:15:58.408Z,97.78
2022-12-08T02:18:43.561Z,97.93
2022-12-08T02:21:17.744Z,98.10
2022-12-08T02:23:55.108Z,98.21
2022-12-08T02:26:39.463Z,98.12
2022-12-08T02:29:36.235Z,98.05
2022-12-08T02:32:22.013Z,98.20
2022-12-08T02:34:58.648Z,98.26
2022-12-08T02:37:30.763Z,98.52
2022-12-08T02:40:04.679Z,98.71
2022-12-08T02:42:39.752Z,98.83
2022-12-08T02:45:13.526Z,99.09
2022-12-08T02:47:42.011Z,99.21
2022-12-08T02:50:11.937Z,99.27
2022-12-08T02:52:44.548Z,99.49
2022-12-08T02:55:19.555Z,99.77
2022-12-08T02:57:57.649Z,100.00
2022-12-08T03:00:28.334Z,99.82
2022-12-08T03:03:08.683Z,100.00
2022-12-08T03:05:57.249Z,100.00
2022-12-08T03:08:32.263Z,100.00
2022-12-08T03:11:04.896Z,100.00
2022-12-08T03:13:39.635Z,100.00
2022-12-08T03:16:10.907Z,100.00
2022-12-08T03:18:44.253Z,99.99
2022-12-08T03:21:15.437Z,100.00
2022-12-08T03:23:45.949Z,100.00
2022-12-08T03:26:19.791Z,100.00
2022-12-08T03:28:48.092Z,100.00
2022-12-08T03:31:18.669Z,100.00
2022-12-08T03:33:52.722Z,100.00
2022-12-08T03:36:21.847Z,100.00
2022-12-08T03:38:53.812Z,100.00
2022-12-08T03:41:23.437Z,100.00
2022-12-08T03:43:52.102Z,99.78
2022-12-08T03:48:51.765Z,99.37
2022-12-08T03:51:21.006Z,99.36
2022-12-08T03:53:49.015Z,99.02
2022-12-08T03:56:20.999Z,98.91
2022-12-08T03:58:48.730Z,98.72
2022-12-08T04:01:16.546Z,98.77
2022-12-08T04:03:44.317Z,98.75
2022-12-08T04:06:12.092Z,98.34
2022-12-08T04:08:41.398Z,98.36
2022-12-08T04:11:09.765Z,98.04
2022-12-08T04:13:39.780Z,97.84
2022-12-08T04:16:08.603Z,97.79
2022-12-08T04:18:36.863Z,97.69
2022-12-08T04:21:04.807Z,97.78
2022-12-08T04:23:32.551Z,97.73
2022-12-08T04:26:01.666Z,97.50
2022-12-08T04:28:29.650Z,97.43
2022-12-08T04:30:57.458Z,97.47
2022-12-08T04:33:25.455Z,97.79
2022-12-08T04:35:53.219Z,97.66
2022-12-08T04:38:20.951Z,97.87
2022-12-08T04:40:48.722Z,97.82
2022-12-08T04:43:18.915Z,97.86
2022-12-08T04:45:47.488Z,98.06
2022-12-08T04:48:15.591Z,97.95
2022-12-08T04:50:45.472Z,98.18
2022-12-08T04:53:14.351Z,98.30
2022-12-08T04:55:43.823Z,98.41
2022-12-08T04:58:14.124Z,98.30
2022-12-08T05:00:43.902Z,98.39
2022-12-08T05:03:11.974Z,98.44
2022-12-08T05:05:39.949Z,98.58
2022-12-08T05:08:07.806Z,98.59
2022-12-08T05:10:35.688Z,98.63
2022-12-08T05:13:03.445Z,98.61
2022-12-08T05:15:31.268Z,98.50
2022-12-08T05:18:00.363Z,98.68
2022-12-08T05:20:28.540Z,98.63
2022-12-08T05:22:56.238Z,98.61
2022-12-08T05:25:24.045Z,98.50
2022-12-08T05:27:55.285Z,98.27
2022-12-08T05:30:29.661Z,98.40
2022-12-08T05:32:57.392Z,98.14
2022-12-08T05:35:26.471Z,98.12
2022-12-08T05:37:54.270Z,98.09
2022-12-08T05:40:22.021Z,97.89
2022-12-08T05:42:49.776Z,97.73
2022-12-08T05:45:17.551Z,97.61
2022-12-08T05:47:45.420Z,97.65
2022-12-08T05:50:13.270Z,97.58
2022-12-08T05:52:42.489Z,97.47
2022-12-08T05:55:11.384Z,97.30
2022-12-08T05:57:39.124Z,97.12
2022-12-08T06:00:08.363Z,97.31
2022-12-08T06:02:39.577Z,97.15
2022-12-08T06:05:08.495Z,97.05
2022-12-08T06:07:36.613Z,97.05
2022-12-08T06:10:07.713Z,97.11
2022-12-08T06:12:35.575Z,97.04
2022-12-08T06:15:03.404Z,97.12
2022-12-08T06:17:31.151Z,96.87
2022-12-08T06:19:58.918Z,96.99
2022-12-08T06:22:26.791Z,96.99
2022-12-08T06:24:54.548Z,96.81
2022-12-08T06:27:23.640Z,96.98
2022-12-08T06:29:51.415Z,97.08
2022-12-08T06:32:24.323Z,97.04
2022-12-08T06:34:54.975Z,97.15
2022-12-08T06:37:22.696Z,97.37
2022-12-08T06:39:50.627Z,97.46
2022-12-08T06:42:35.784Z,97.38
2022-12-08T06:45:05.578Z,97.58
2022-12-08T06:47:33.381Z,97.75
2022-12-08T06:50:01.576Z,97.69
2022-12-08T06:52:29.491Z,97.48
2022-12-08T06:54:57.253Z,97.25
2022-12-08T06:57:25.717Z,97.18
2022-12-08T06:59:53.468Z,97.16
2022-12-08T07:02:22.572Z,97.17
2022-12-08T07:04:50.365Z,97.05
2022-12-08T07:07:18.171Z,96.82
2022-12-08T07:09:45.899Z,97.08
2022-12-08T07:12:13.699Z,96.96
2022-12-08T07:14:41.469Z,97.08
2022-12-08T07:17:09.277Z,96.89
2022-12-08T07:19:38.409Z,97.01
2022-12-08T07:22:06.257Z,97.16
2022-12-08T07:24:34.059Z,97.44
2022-12-08T07:27:01.866Z,97.34
2022-12-08T07:29:29.620Z,97.42
2022-12-08T07:31:57.403Z,97.38
2022-12-08T07:34:25.403Z,97.37
2022-12-08T07:36:54.475Z,97.75
2022-12-08T07:39:23.053Z,97.38
2022-12-08T07:41:51.045Z,97.54
2022-12-08T07:44:18.788Z,97.54
2022-12-08T07:46:46.959Z,97.52
2022-12-08T07:49:14.736Z,97.47
2022-12-08T07:51:42.494Z,97.41
2022-12-08T07:54:13.343Z,97.74
2022-12-08T07:56:41.091Z,97.53
2022-12-08T07:59:08.808Z,97.66
2022-12-08T08:01:36.801Z,97.49
2022-12-08T08:04:06.289Z,97.78
2022-12-08T08:06:36.272Z,97.56
2022-12-08T08:09:04.059Z,97.32
2022-12-08T08:11:33.157Z,97.42
2022-12-08T08:14:00.948Z,97.39
2022-12-08T08:16:32.238Z,97.44
2022-12-08T08:19:04.396Z,97.21
2022-12-08T08:21:47.414Z,97.38
2022-12-08T08:24:15.196Z,97.16
2022-12-08T08:26:44.271Z,97.06
2022-12-08T08:29:12.085Z,97.13
2022-12-08T08:31:40.831Z,97.04
2022-12-08T08:34:09.119Z,97.16
2022-12-08T08:36:37.068Z,96.83
2022-12-08T08:39:05.443Z,97.01
2022-12-08T08:41:33.411Z,96.83
2022-12-08T08:44:02.818Z,96.91
2022-12-08T08:46:30.644Z,96.77
2022-12-08T08:48:58.551Z,96.85
2022-12-08T08:51:26.373Z,96.77
2022-12-08T08:53:54.107Z,96.85
2022-12-08T08:56:24.214Z,96.83
2022-12-08T08:58:53.682Z,96.73
2022-12-08T09:01:25.110Z,96.49
2022-12-08T09:03:53.421Z,96.20
2022-12-08T09:06:21.834Z,96.16
2022-12-08T09:08:50.179Z,96.13
2022-12-08T09:11:18.981Z,96.12
2022-12-08T09:13:48.861Z,95.85
2022-12-08T09:16:17.256Z,96.02
2022-12-08T09:18:47.284Z,96.09
2022-12-08T09:21:20.305Z,96.15
2022-12-08T09:23:48.094Z,96.07
2022-12-08T09:26:17.077Z,95.96
2022-12-08T09:28:46.634Z,96.09
2022-12-08T09:31:14.901Z,96.34
2022-12-08T09:33:43.108Z,96.31
2022-12-08T09:36:12.780Z,96.09
2022-12-08T09:38:41.549Z,96.16
2022-12-08T09:41:17.449Z,96.29
2022-12-08T09:44:01.831Z,96.40
2022-12-08T09:46:33.406Z,96.50
2022-12-08T09:49:03.167Z,96.29
2022-12-08T09:51:41.582Z,96.26
2022-12-08T09:54:16.940Z,96.16
2022-12-08T09:56:44.983Z,96.23
2022-12-08T09:59:23.689Z,96.26
2022-12-08T10:01:52.688Z,95.97
2022-12-08T10:04:24.987Z,95.71
2022-12-08T10:07:04.756Z,95.84
2022-12-08T10:09:41.087Z,95.63
2022-12-08T10:12:17.427Z,95.26
2022-12-08T10:14:48.315Z,95.28
2022-12-08T10:17:21.971Z,95.16
2022-12-08T10:19:50.496Z,94.96
2022-12-08T10:22:23.191Z,95.01
2022-12-08T10:25:01.077Z,94.85
2022-12-08T10:27:29.152Z,94.75
2022-12-08T10:29:56.833Z,94.82
2022-12-08T10:32:29.131Z,94.59
2022-12-08T10:35:02.890Z,94.47
2022-12-08T10:37:32.035Z,94.37
2022-12-08T10:40:01.564Z,94.52
2022-12-08T10:42:36.357Z,94.32
2022-12-08T10:45:21.254Z,94.25
2022-12-08T10:47:58.336Z,94.35
2022-12-08T10:50:31.965Z,94.17
2022-12-08T10:53:02.762Z,94.12
2022-12-08T10:55:40.191Z,94.11
2022-12-08T10:58:25.363Z,93.91
2022-12-08T11:00:55.586Z,93.83
2022-12-08T11:03:29.164Z,93.63
2022-12-08T11:06:02.739Z,93.68
2022-12-08T11:08:34.855Z,93.62
2022-12-08T11:11:02.676Z,93.33
2022-12-08T11:13:30.520Z,93.46
2022-12-08T11:15:58.705Z,93.66
2022-12-08T11:18:29.975Z,93.54
2022-12-08T11:21:01.757Z,93.87
2022-12-08T11:23:31.327Z,93.85
2022-12-08T11:26:06.723Z,93.79
2022-12-08T11:28:34.458Z,94.19
2022-12-08T11:31:08.078Z,93.97
2022-12-08T11:33:35.902Z,94.08
2022-12-08T11:36:07.251Z,93.94
2022-12-08T11:38:40.851Z,94.08
2022-12-08T11:41:16.403Z,94.26
2022-12-08T11:43:50.307Z,94.18
2022-12-08T11:46:22.341Z,94.50
2022-12-08T11:48:54.996Z,94.49
2022-12-08T11:51:31.399Z,94.95
2022-12-08T11:54:12.412Z,94.90
2022-12-08T11:56:45.664Z,95.28
2022-12-08T11:59:20.579Z,95.61
2022-12-08T12:01:48.429Z,95.62
2022-12-08T12:04:24.847Z,95.59
2022-12-08T12:07:26.358Z,95.48
2022-12-08T12:10:10.675Z,95.47
2022-12-08T12:12:55.268Z,95.61
2022-12-08T12:16:04.917Z,95.28
2022-12-08T12:18:38.760Z,95.36
2022-12-08T12:21:12.094Z,95.09
2022-12-08T12:23:44.220Z,94.92
2022-12-08T12:26:20.603Z,94.75
2022-12-08T12:28:54.383Z,94.53
2022-12-08T12:31:26.117Z,94.10
2022-12-08T12:33:58.255Z,93.89
2022-12-08T12:36:26.735Z,93.86
2022-12-08T12:39:02.141Z,93.19
2022-12-08T12:41:36.515Z,92.59
2022-12-08T12:44:26.760Z,92.31
2022-12-08T12:46:59.958Z,92.13
2022-12-08T12:49:50.845Z,91.91
2022-12-08T12:52:37.848Z,92.13
2022-12-08T12:55:23.790Z,91.79
2022-12-08T12:57:53.495Z,91.35
2022-12-08T13:00:24.084Z,90.73
2022-12-08T13:02:53.575Z,89.99
2022-12-08T13:05:24.863Z,89.86
2022-12-08T13:07:56.219Z,89.69
2022-12-08T13:10:26.594Z,89.05
2022-12-08T13:13:07.744Z,89.33
2022-12-08T13:15:39.416Z,89.35
2022-12-08T13:18:08.589Z,89.61
2022-12-08T13:20:43.761Z,89.72
2022-12-08T13:23:27.977Z,89.92
2022-12-08T13:26:15.138Z,89.51
2022-12-08T13:29:08.599Z,89.78
2022-12-08T13:31:48.376Z,89.72
2022-12-08T13:34:21.868Z,89.60
2022-12-08T13:37:18.799Z,89.63
2022-12-08T13:39:52.833Z,89.83
2022-12-08T13:42:26.040Z,89.82
2022-12-08T13:48:21.619Z,90.00
2022-12-08T13:57:03.968Z,90.40
2022-12-08T13:59:30.296Z,90.79
2022-12-08T14:02:02.140Z,90.73
2022-12-08T14:04:47.893Z,90.64
2022-12-08T14:07:20.097Z,89.72
2022-12-08T14:09:47.995Z,89.31
2022-12-08T14:12:20.728Z,88.91
2022-12-08T14:15:03.081Z,88.46
2022-12-08T14:17:31.578Z,88.37
2022-12-08T14:20:02.902Z,87.82
2022-12-08T14:22:35.360Z,87.75
2022-12-08T14:25:03.872Z,87.67
2022-12-08T14:27:35.774Z,86.98
2022-12-08T14:30:07.361Z,86.82
2022-12-08T14:32:40.060Z,87.18
2022-12-08T14:35:25.566Z,87.24
2022-12-08T14:37:56.862Z,87.17
2022-12-08T14:40:25.749Z,87.15
2022-12-08T14:43:06.135Z,87.06
2022-12-08T14:45:35.081Z,86.97
2022-12-08T14:48:25.437Z,86.74
2022-12-08T14:51:05.256Z,87.02
2022-12-08T14:53:40.656Z,87.09
2022-12-08T14:56:15.469Z,87.30
2022-12-08T14:58:43.356Z,87.29
2022-12-08T15:01:13.836Z,87.79
2022-12-08T15:03:44.670Z,88.11
2022-12-08T15:06:22.948Z,88.21
2022-12-08T15:08:58.755Z,88.60
2022-12-08T15:11:33.036Z,88.86
2022-12-08T15:14:01.089Z,89.16
2022-12-08T15:16:32.931Z,89.52
2022-12-08T15:19:10.771Z,89.80
2022-12-08T15:21:44.641Z,90.39
2022-12-08T15:24:14.037Z,90.52
2022-12-08T15:26:44.907Z,91.01
2022-12-08T15:29:17.695Z,91.51
2022-12-08T15:31:45.480Z,91.61
2022-12-08T15:34:13.256Z,92.10
2022-12-08T15:36:42.903Z,92.57
2022-12-08T15:39:22.195Z,93.04
2022-12-08T15:41:49.940Z,93.12
2022-12-08T15:44:17.721Z,93.18
2022-12-08T15:46:45.578Z,93.34
2022-12-08T15:49:18.440Z,93.64
2022-12-08T15:51:46.681Z,93.89
2022-12-08T15:54:15.864Z,94.03
2022-12-08T15:57:17.496Z,93.90
2022-12-08T15:59:35.226Z,94.13
2022-12-08T16:02:03.083Z,94.29
2022-12-08T16:05:18.245Z,94.19
2022-12-08T16:07:24.350Z,94.09
2022-12-08T16:09:54.236Z,93.96
2022-12-08T16:13:48.125Z,94.02
2022-12-08T16:18:24.174Z,93.90
2022-12-08T16:21:16.920Z,94.13
2022-12-08T16:23:44.635Z,94.11
2022-12-08T16:26:28.641Z,94.06
2022-12-08T16:29:04.938Z,94.26
2022-12-08T16:31:33.354Z,94.29
2022-12-08T16:34:01.444Z,94.66
2022-12-08T16:36:29.268Z,94.56
2022-12-08T16:38:57.067Z,94.59
2022-12-08T16:41:43.618Z,94.70
2022-12-08T16:44:11.383Z,94.83
2022-12-08T16:46:39.207Z,94.93
2022-12-08T16:49:09.706Z,95.07
2022-12-08T16:51:37.608Z,95.25
2022-12-08T16:54:05.665Z,95.17
2022-12-08T16:56:34.832Z,95.45
2022-12-08T16:59:02.814Z,95.76
2022-12-08T17:01:30.720Z,95.58
2022-12-08T17:04:29.716Z,95.77
2022-12-08T17:06:46.424Z,95.79
2022-12-08T17:09:14.243Z,95.82
2022-12-08T17:11:44.070Z,95.98
2022-12-08T17:14:12.595Z,96.05
2022-12-08T17:16:40.592Z,95.99
2022-12-08T17:19:08.431Z,95.87
2022-12-08T17:21:36.813Z,95.80
2022-12-08T17:24:04.873Z,95.86
2022-12-08T17:26:32.694Z,95.84
2022-12-08T17:29:02.593Z,95.83
2022-12-08T17:31:32.249Z,95.68
2022-12-08T17:34:00.672Z,95.65
2022-12-08T17:36:28.473Z,95.81
2022-12-08T17:38:56.673Z,95.96
2022-12-08T17:41:24.436Z,95.86
2022-12-08T17:43:52.645Z,95.91
2022-12-08T17:46:23.010Z,96.03
2022-12-08T17:48:50.895Z,96.10
2022-12-08T17:51:18.744Z,96.63
2022-12-08T17:53:48.880Z,96.59
2022-12-08T17:56:20.782Z,96.74
2022-12-08T17:58:54.284Z,96.64
2022-12-08T18:01:24.313Z,96.76
2022-12-08T18:04:01.919Z,96.96
2022-12-08T18:06:31.363Z,96.82
2022-12-08T18:09:00.844Z,96.73
2022-12-08T18:11:30.142Z,97.30
2022-12-08T18:13:58.603Z,96.85
2022-12-08T18:16:28.654Z,97.16
2022-12-08T18:18:56.494Z,97.22
2022-12-08T18:21:24.280Z,97.37
2022-12-08T18:23:52.155Z,97.51
2022-12-08T18:26:20.846Z,97.44
2022-12-08T18:28:48.602Z,97.64
2022-12-08T18:31:18.981Z,97.50
2022-12-08T18:33:49.220Z,97.50
2022-12-08T18:36:18.864Z,97.44
2022-12-08T18:38:47.302Z,97.17
2022-12-08T18:41:17.782Z,97.27
2022-12-08T18:43:45.893Z,97.38
2022-12-08T18:46:15.532Z,97.29
2022-12-08T18:48:45.946Z,97.68
2022-12-08T18:51:16.621Z,97.84
2022-12-08T18:53:45.173Z,97.80
2022-12-08T18:56:22.139Z,98.11
2022-12-08T18:58:49.912Z,98.25
2022-12-08T19:01:17.989Z,98.39
2022-12-08T19:04:12.103Z,98.42
2022-12-08T19:06:37.754Z,98.32
2022-12-08T19:09:05.577Z,98.87
2022-12-08T19:11:33.347Z,98.85
2022-12-08T19:14:01.128Z,99.03
2022-12-08T19:16:29.044Z,98.93
2022-12-08T19:18:57.071Z,99.07
2022-12-08T19:21:24.995Z,98.98
2022-12-08T19:23:55.881Z,98.72
2022-12-08T19:26:23.716Z,99.02
2022-12-08T19:28:51.576Z,98.83
2022-12-08T19:31:19.484Z,98.86
2022-12-08T19:33:47.329Z,99.05
2022-12-08T19:36:17.065Z,99.20
2022-12-08T19:39:01.475Z,99.15
2022-12-08T19:41:48.754Z,99.22
2022-12-08T19:44:38.511Z,99.34
2022-12-08T19:47:06.394Z,99.12
2022-12-08T19:49:34.286Z,99.25
2022-12-08T19:52:02.079Z,99.18
2022-12-08T19:54:29.844Z,99.20
2022-12-08T19:56:58.945Z,99.11
2022-12-08T19:59:27.101Z,99.20
2022-12-08T20:01:55.774Z,98.96
2022-12-08T20:04:24.841Z,98.91
2022-12-08T20:06:53.955Z,98.52
2022-12-08T20:09:22.596Z,98.73
2022-12-08T20:11:50.908Z,98.76
2022-12-08T20:14:20.373Z,98.91
2022-12-08T20:16:48.311Z,98.76
2022-12-08T20:19:16.099Z,98.92
2022-12-08T20:21:43.860Z,99.15
2022-12-08T20:24:11.868Z,99.20
2022-12-08T20:26:39.700Z,99.02
2022-12-08T20:29:07.548Z,98.90
2022-12-08T20:31:36.729Z,99.03
2022-12-08T20:34:04.673Z,98.77
2022-12-08T20:36:32.439Z,98.62
2022-12-08T20:39:00.330Z,98.31
2022-12-08T20:41:28.171Z,98.13
2022-12-08T20:43:55.967Z,98.10
2022-12-08T20:46:23.897Z,97.98
2022-12-08T20:48:53.063Z,98.36
2022-12-08T20:51:21.128Z,98.05
2022-12-08T20:53:48.993Z,98.19
2022-12-08T20:56:18.918Z,98.30
2022-12-08T20:58:47.057Z,98.25
2022-12-08T21:01:18.199Z,97.94
2022-12-08T21:03:47.090Z,98.03
2022-12-08T21:06:17.218Z,98.06
2022-12-08T21:08:59.312Z,97.73
2022-12-08T21:11:29.013Z,97.88
2022-12-08T21:13:57.023Z,97.85
2022-12-08T21:16:24.873Z,98.13
2022-12-08T21:18:52.979Z,98.25
2022-12-08T21:21:22.350Z,98.09
2022-12-08T21:23:50.472Z,97.92
2022-12-08T21:26:21.695Z,97.50
2022-12-08T21:28:49.531Z,97.89
2022-12-08T21:31:21.585Z,98.16
2022-12-08T21:33:50.205Z,98.64
2022-12-08T21:36:20.718Z,98.57
2022-12-08T21:38:50.376Z,98.66
2022-12-08T21:41:41.713Z,98.52
2022-12-08T21:44:12.232Z,98.51
2022-12-08T21:46:40.282Z,98.98
2022-12-08T21:49:08.650Z,98.86
2022-12-08T21:51:41.449Z,98.90
2022-12-08T21:54:18.302Z,98.70
2022-12-08T21:56:47.711Z,98.46
2022-12-08T21:59:16.156Z,98.05
2022-12-08T22:01:44.514Z,97.60
2022-12-08T22:04:13.217Z,97.79
2022-12-08T22:06:41.220Z,97.69
2022-12-08T22:09:11.767Z,97.70
2022-12-08T22:11:39.915Z,97.79
2022-12-08T22:14:12.564Z,97.27
2022-12-08T22:16:42.975Z,97.25
2022-12-08T22:19:11.106Z,97.31
2022-12-08T22:21:39.165Z,97.14
2022-12-08T22:24:07.472Z,96.89
2022-12-08T22:26:36.845Z,97.05
2022-12-08T22:29:04.868Z,96.96
2022-12-08T22:31:33.015Z,96.96
2022-12-08T22:34:01.141Z,96.79
2022-12-08T22:36:29.828Z,97.19
2022-12-08T22:38:58.039Z,96.76
2022-12-08T22:41:25.863Z,96.75
2022-12-08T22:43:55.208Z,96.78
2022-12-08T22:46:25.649Z,96.90
2022-12-08T22:48:54.667Z,96.77
2022-12-08T22:51:22.575Z,96.48
2022-12-08T22:53:50.493Z,96.42
2022-12-08T22:56:19.679Z,96.31
2022-12-08T22:58:47.825Z,95.94
2022-12-08T23:01:26.149Z,95.93
2022-12-08T23:03:54.259Z,96.06
2022-12-08T23:06:22.568Z,96.18
2022-12-08T23:08:51.051Z,96.12
2022-12-08T23:11:19.668Z,96.41
2022-12-08T23:13:48.140Z,96.55
2022-12-08T23:16:16.338Z,96.65
2022-12-08T23:18:47.064Z,96.72
2022-12-08T23:21:17.735Z,96.94
2022-12-08T23:23:45.830Z,97.03
2022-12-08T23:26:17.983Z,96.93
2022-12-08T23:28:46.152Z,97.02
2022-12-08T23:31:14.390Z,97.23
2022-12-08T23:33:42.725Z,97.55
2022-12-08T23:36:12.966Z,97.35
2022-12-08T23:38:40.704Z,97.70
2022-12-08T23:41:09.727Z,97.77
2022-12-08T23:43:37.847Z,97.76
2022-12-08T23:46:05.729Z,97.74
2022-12-08T23:48:34.973Z,98.00
2022-12-08T23:51:02.947Z,97.91
2022-12-08T23:53:33.146Z,97.86
2022-12-08T23:56:01.796Z,97.52
2022-12-08T23:58:31.276Z,97.56
